Time;durP1;ratioP1;P1;durP2;ratioP2;P2;SDS_P1;SDS_P2;PMS_P1;PMS_P2;Temp;Humidity;BMP_temperature;BMP_pressure;BME280_temperature;BME280_humidity;BME280_pressure;Samples;Min_cycle;Max_cycle;Signal;HPM_P1;HPM_P2
2021/06/05 00:00:23;;;;;;;0.32;0.30;;;;;;;13.14;100.00;93606.50;2082042;28;20025;-88
2021/06/05 00:01:46;;;;;;;0.35;0.30;;;;;;;13.12;100.00;93606.91;2071362;28;20025;-90
2021/06/05 00:02:47;;;;;;;0.52;0.25;;;;;;;13.10;100.00;93604.63;2081441;28;20052;-86
2021/06/05 00:03:49;;;;;;;0.57;0.30;;;;;;;13.02;100.00;93608.66;2089720;28;20017;-86
2021/06/05 00:04:57;;;;;;;0.20;0.20;;;;;;;13.18;100.00;93601.81;2091058;28;20520;-88
2021/06/05 00:05:59;;;;;;;0.30;0.20;;;;;;;13.07;100.00;93608.16;2085434;28;20064;-90
2021/06/05 00:07:00;;;;;;;0.52;0.22;;;;;;;13.07;100.00;93600.09;2070890;28;20036;-90
2021/06/05 00:08:01;;;;;;;0.30;0.20;;;;;;;13.03;100.00;93604.03;2079545;28;20498;-90
2021/06/05 00:09:04;;;;;;;0.40;0.35;;;;;;;13.03;100.00;93601.38;2085698;28;20059;-88
2021/06/05 00:10:13;;;;;;;0.22;0.22;;;;;;;12.96;100.00;93599.63;2089549;28;20022;-89
2021/06/05 00:11:17;;;;;;;0.50;0.30;;;;;;;12.94;100.00;93595.81;2077302;28;20076;-87
2021/06/05 00:12:21;;;;;;;0.30;0.30;;;;;;;12.94;100.00;93595.81;2084254;28;20021;-89
2021/06/05 00:13:49;;;;;;;0.52;0.30;;;;;;;12.88;100.00;93592.91;2086190;28;20029;-88
2021/06/05 00:14:54;;;;;;;0.20;0.20;;;;;;;12.88;100.00;93595.56;2087234;28;20044;-89
2021/06/05 00:15:56;;;;;;;0.70;0.20;;;;;;;12.87;100.00;93594.06;2087076;28;20031;-88
2021/06/05 00:16:56;;;;;;;0.20;0.20;;;;;;;12.87;100.00;93596.75;2089357;28;20033;-92
2021/06/05 00:17:57;;;;;;;0.20;0.20;;;;;;;12.93;100.00;93589.72;2078675;28;20040;-88
2021/06/05 00:18:58;;;;;;;0.35;0.25;;;;;;;12.87;100.00;93591.41;2085928;28;20049;-91
2021/06/05 00:19:59;;;;;;;0.20;0.20;;;;;;;12.92;100.00;93590.13;2085851;28;20112;-88
2021/06/05 00:21:00;;;;;;;0.30;0.30;;;;;;;12.87;100.00;93601.38;2078020;28;20026;-88
2021/06/05 00:22:01;;;;;;;0.20;0.20;;;;;;;12.83;100.00;93593.41;2084620;28;20493;-88
2021/06/05 00:23:06;;;;;;;0.20;0.20;;;;;;;12.76;100.00;93593.53;2108467;28;20043;-89
2021/06/05 00:24:08;;;;;;;0.28;0.25;;;;;;;12.81;100.00;93603.78;2090501;28;20029;-90
2021/06/05 00:25:13;;;;;;;0.70;0.40;;;;;;;12.75;100.00;93597.41;2086313;28;20033;-89
2021/06/05 00:26:15;;;;;;;0.30;0.30;;;;;;;12.76;100.00;93602.34;2092379;28;20056;-93
2021/06/05 00:27:16;;;;;;;0.20;0.20;;;;;;;12.75;100.00;93592.03;2093356;28;20401;-86
2021/06/05 00:28:18;;;;;;;0.30;0.20;;;;;;;12.72;100.00;93588.25;2076485;28;20124;-90
2021/06/05 00:29:19;;;;;;;0.30;0.30;;;;;;;12.73;100.00;93589.00;2078812;28;20022;-89
2021/06/05 00:30:21;;;;;;;0.20;0.20;;;;;;;12.76;100.00;93594.31;2078743;28;20047;-89
2021/06/05 00:31:21;;;;;;;0.50;0.30;;;;;;;12.88;100.00;93590.22;2090346;28;20624;-89
2021/06/05 00:32:22;;;;;;;0.30;0.30;;;;;;;12.79;100.00;93590.03;2092626;28;20074;-87
2021/06/05 00:33:23;;;;;;;0.45;0.30;;;;;;;12.75;100.00;93598.16;2086259;28;20033;-91
2021/06/05 00:34:24;;;;;;;0.40;0.30;;;;;;;12.85;100.00;93593.72;2083897;28;20063;-88
2021/06/05 00:35:29;;;;;;;0.30;0.30;;;;;;;12.87;100.00;93590.63;2084907;28;20044;-90
2021/06/05 00:36:30;;;;;;;0.20;0.20;;;;;;;12.82;100.00;93587.28;2084988;28;20082;-88
2021/06/05 00:37:31;;;;;;;0.60;0.20;;;;;;;12.83;100.00;93588.78;2095071;28;20020;-89
2021/06/05 00:38:32;;;;;;;0.30;0.30;;;;;;;12.80;100.00;93591.53;2094271;28;20496;-89
2021/06/05 00:39:33;;;;;;;0.40;0.30;;;;;;;12.69;100.00;93591.78;2095168;28;20056;-91
2021/06/05 00:40:42;;;;;;;0.22;0.22;;;;;;;12.73;100.00;93587.09;2088832;28;20021;-88
2021/06/05 00:41:43;;;;;;;0.20;0.20;;;;;;;12.70;100.00;93587.94;2086214;28;20068;-89
2021/06/05 00:42:45;;;;;;;0.52;0.20;;;;;;;12.69;100.00;93577.63;2091594;28;20080;-90
2021/06/05 00:43:49;;;;;;;0.45;0.20;;;;;;;12.75;100.00;93581.31;2088779;28;20028;-88
2021/06/05 00:44:50;;;;;;;0.40;0.30;;;;;;;12.78;100.00;93580.50;2085899;28;20029;-89
2021/06/05 00:45:52;;;;;;;0.65;0.38;;;;;;;12.71;100.00;93577.94;2093463;28;20486;-89
2021/06/05 00:46:52;;;;;;;0.30;0.20;;;;;;;12.76;100.00;93574.78;2086617;28;20470;-88
2021/06/05 00:47:54;;;;;;;0.20;0.20;;;;;;;12.74;100.00;93577.13;2086577;28;20036;-89
2021/06/05 00:48:55;;;;;;;1.60;0.28;;;;;;;12.78;100.00;93567.06;2074949;28;20060;-92
2021/06/05 00:49:56;;;;;;;0.20;0.20;;;;;;;12.70;100.00;93566.47;2079313;28;20408;-89
2021/06/05 00:50:58;;;;;;;0.45;0.30;;;;;;;12.77;100.00;93568.97;2077183;28;20124;-89
2021/06/05 00:52:02;;;;;;;0.20;0.20;;;;;;;12.76;100.00;93564.03;2085701;28;20115;-87
2021/06/05 00:53:05;;;;;;;0.40;0.40;;;;;;;12.80;100.00;93560.09;2087173;28;20041;-89
2021/06/05 00:54:08;;;;;;;0.38;0.30;;;;;;;12.78;100.00;93567.06;2092438;28;20079;-88
2021/06/05 00:55:11;;;;;;;0.70;0.20;;;;;;;12.78;100.00;93561.72;2087595;28;20020;-90
2021/06/05 00:56:13;;;;;;;0.20;0.20;;;;;;;12.73;100.00;93562.97;2087778;28;20366;-91
2021/06/05 00:57:14;;;;;;;0.25;0.20;;;;;;;12.70;100.00;93563.03;2082458;28;20032;-87
2021/06/05 00:58:16;;;;;;;0.45;0.20;;;;;;;12.67;100.00;93559.25;2078019;28;20039;-87
2021/06/05 00:59:18;;;;;;;0.65;0.30;;;;;;;12.72;100.00;93556.06;2083637;28;20029;-87
2021/06/05 01:00:30;;;;;;;0.20;0.20;;;;;;;12.77;100.00;93560.19;2076003;28;20029;-87
2021/06/05 01:01:31;;;;;;;0.20;0.20;;;;;;;12.78;100.00;93556.34;2076745;28;20087;-88
2021/06/05 01:02:32;;;;;;;0.20;0.20;;;;;;;12.74;100.00;93553.00;2077102;28;20508;-87
2021/06/05 01:03:35;;;;;;;0.40;0.20;;;;;;;12.65;100.00;93553.56;2094603;28;20035;-91
2021/06/05 01:04:37;;;;;;;0.40;0.20;;;;;;;12.63;100.00;93545.16;2086177;28;20025;-88
2021/06/05 01:05:39;;;;;;;1.38;0.30;;;;;;;12.70;100.00;93558.44;2101220;28;20040;-92
2021/06/05 01:07:00;;;;;;;0.20;0.20;;;;;;;12.75;100.00;93551.81;2099733;28;20032;-89
2021/06/05 01:08:44;;;;;;;0.20;0.20;;;;;;;12.73;100.00;93552.25;2096463;28;20024;-88
2021/06/05 01:09:59;;;;;;;2.13;0.43;;;;;;;12.84;100.00;93549.28;2072645;28;20132;-90
2021/06/05 01:11:30;;;;;;;0.28;0.20;;;;;;;12.71;100.00;93553.81;2076984;28;20036;-87
2021/06/05 01:12:48;;;;;;;1.20;0.28;;;;;;;12.72;100.00;93549.94;2084553;28;20040;-88
2021/06/05 01:13:59;;;;;;;0.28;0.20;;;;;;;12.67;100.00;93550.44;2079635;28;20038;-86
2021/06/05 01:15:12;;;;;;;0.35;0.20;;;;;;;12.71;100.00;93553.81;2087582;28;20113;-89
2021/06/05 01:16:18;;;;;;;0.45;0.20;;;;;;;12.68;100.00;93549.28;2093692;28;20174;-87
2021/06/05 01:17:27;;;;;;;0.20;0.20;;;;;;;12.72;100.00;93545.34;2085662;28;20108;-87
2021/06/05 01:19:05;;;;;;;0.57;0.32;;;;;;;12.72;100.00;93545.34;2095472;28;20070;-92
2021/06/05 01:20:18;;;;;;;0.30;0.30;;;;;;;12.73;100.00;93540.72;2091332;28;20409;-88
2021/06/05 01:21:30;;;;;;;0.68;0.28;;;;;;;12.72;100.00;93539.22;2085938;28;20466;-88
2021/06/05 01:22:56;;;;;;;0.82;0.30;;;;;;;12.73;100.00;93541.50;2081531;28;20108;-91
2021/06/05 01:24:24;;;;;;;0.22;0.17;;;;;;;12.73;100.00;93536.13;2083864;28;20032;-90
2021/06/05 01:25:43;;;;;;;1.00;0.30;;;;;;;12.76;100.00;93537.97;2070513;28;20217;-89
2021/06/05 01:26:52;;;;;;;2.50;0.20;;;;;;;12.71;100.00;93541.16;2096501;28;20032;-90
2021/06/05 01:27:58;;;;;;;0.32;0.20;;;;;;;12.72;100.00;93539.97;2095393;28;20586;-89
2021/06/05 01:29:18;;;;;;;0.55;0.20;;;;;;;12.80;100.00;93543.25;2083435;28;20147;-89
2021/06/05 01:30:31;;;;;;;0.20;0.20;;;;;;;12.81;100.00;93534.03;2103405;28;20484;-88
2021/06/05 01:31:39;;;;;;;0.30;0.30;;;;;;;12.72;100.00;93534.59;2108407;28;20035;-87
2021/06/05 01:32:41;;;;;;;0.35;0.20;;;;;;;12.70;100.00;93534.28;2094344;28;20062;-87
2021/06/05 01:33:43;;;;;;;0.30;0.30;;;;;;;12.83;100.00;93532.44;2089670;28;20021;-89
2021/06/05 01:34:47;;;;;;;0.98;0.20;;;;;;;12.73;100.00;93538.03;2094583;28;20032;-90
2021/06/05 01:35:49;;;;;;;0.35;0.20;;;;;;;12.72;100.00;93534.59;2091352;28;20591;-91
2021/06/05 01:36:53;;;;;;;0.43;0.20;;;;;;;12.71;100.00;93529.69;2094618;28;20029;-88
2021/06/05 01:37:55;;;;;;;0.20;0.20;;;;;;;12.66;100.00;93527.50;2086381;28;20113;-89
2021/06/05 01:39:01;;;;;;;0.47;0.28;;;;;;;12.72;100.00;93528.50;2078161;28;20022;-88
2021/06/05 01:40:04;;;;;;;0.50;0.30;;;;;;;12.69;100.00;93535.47;2077839;28;20067;-89
2021/06/05 01:41:07;;;;;;;0.80;0.30;;;;;;;12.67;100.00;93531.69;2075629;28;20029;-86
2021/06/05 01:42:13;;;;;;;0.45;0.20;;;;;;;12.63;100.00;93531.75;2085817;28;20028;-90
2021/06/05 01:43:17;;;;;;;0.20;0.20;;;;;;;12.66;100.00;93538.97;2084229;28;20040;-88
2021/06/05 01:44:19;;;;;;;0.20;0.20;;;;;;;12.72;100.00;93537.28;2085783;28;20029;-86
2021/06/05 01:45:26;;;;;;;0.30;0.30;;;;;;;12.71;100.00;93535.03;2094980;28;20021;-90
2021/06/05 01:46:31;;;;;;;0.20;0.20;;;;;;;12.71;100.00;93533.09;2079225;28;20101;-91
2021/06/05 01:47:32;;;;;;;0.20;0.20;;;;;;;12.72;100.00;93531.94;2077045;28;20033;-87
2021/06/05 01:48:34;;;;;;;1.65;0.30;;;;;;;12.75;100.00;93536.47;2083759;28;20428;-88
2021/06/05 01:49:34;;;;;;;1.00;0.30;;;;;;;12.76;100.00;93537.22;2092406;28;20047;-92
2021/06/05 01:50:39;;;;;;;0.30;0.17;;;;;;;12.72;100.00;93533.84;2092517;28;20265;-90
2021/06/05 01:51:42;;;;;;;0.25;0.25;;;;;;;12.69;100.00;93532.03;2078410;28;20474;-88
2021/06/05 01:52:44;;;;;;;0.40;0.25;;;;;;;12.64;100.00;93530.56;2085242;28;20478;-90
2021/06/05 01:53:50;;;;;;;1.45;0.30;;;;;;;12.70;100.00;93528.91;2090598;28;20180;-86
2021/06/05 01:55:00;;;;;;;0.20;0.20;;;;;;;12.70;100.00;93526.25;2084947;28;20028;-89
2021/06/05 01:56:12;;;;;;;0.30;0.30;;;;;;;12.65;100.00;93529.44;2087552;28;20017;-87
2021/06/05 01:57:18;;;;;;;0.52;0.20;;;;;;;12.68;100.00;93527.81;2096620;28;20437;-88
2021/06/05 01:58:28;;;;;;;0.20;0.20;;;;;;;12.67;100.00;93537.03;2094721;28;20097;-90
2021/06/05 01:59:29;;;;;;;0.20;0.20;;;;;;;12.58;100.00;93533.00;2088301;28;20369;-88
2021/06/05 02:00:35;;;;;;;0.20;0.20;;;;;;;12.54;100.00;93531.59;2085988;28;20490;-88
2021/06/05 02:01:36;;;;;;;0.45;0.20;;;;;;;12.55;100.00;93530.41;2077269;28;20391;-89
2021/06/05 02:02:36;;;;;;;0.35;0.30;;;;;;;12.57;100.00;93526.16;2086239;28;20029;-88
2021/06/05 02:05:34;;;;;;;;;;;;;;;12.59;100.00;93523.03;2126476;27;20192;-89
2021/06/05 02:06:37;;;;;;;0.20;0.20;;;;;;;12.53;100.00;93525.47;2112345;28;20359;-87
2021/06/05 02:07:38;;;;;;;0.28;0.20;;;;;;;12.56;100.00;93524.66;2096457;28;20702;-87
2021/06/05 02:08:38;;;;;;;0.28;0.28;;;;;;;12.56;100.00;93521.22;2101169;28;20028;-87
2021/06/05 02:09:39;;;;;;;0.40;0.22;;;;;;;12.54;100.00;93515.50;2096589;28;20039;-87
2021/06/05 02:10:41;;;;;;;0.63;0.30;;;;;;;12.58;100.00;93524.97;2091508;28;20071;-87
2021/06/05 02:11:53;;;;;;;0.38;0.20;;;;;;;12.52;100.00;93513.25;2104019;28;20476;-86
2021/06/05 02:12:55;;;;;;;0.20;0.20;;;;;;;12.56;100.00;93516.59;2105745;28;20032;-87
2021/06/05 02:14:11;;;;;;;0.22;0.20;;;;;;;12.53;100.00;93514.00;2109325;28;20032;-87
2021/06/05 02:15:44;;;;;;;0.35;0.30;;;;;;;12.52;100.00;93518.59;2104930;28;20024;-88
2021/06/05 02:16:49;;;;;;;1.02;0.30;;;;;;;12.52;100.00;93513.25;2098643;28;20103;-88
2021/06/05 02:17:51;;;;;;;0.20;0.20;;;;;;;12.49;100.00;93508.72;2103865;28;20013;-88
2021/06/05 02:19:00;;;;;;;0.10;0.10;;;;;;;12.51;100.00;93513.63;2100635;28;20035;-86
2021/06/05 02:20:10;;;;;;;0.22;0.20;;;;;;;12.51;100.00;93511.75;2106649;28;20035;-88
2021/06/05 02:21:15;;;;;;;0.20;0.20;;;;;;;12.52;100.00;93507.13;2105869;28;20016;-88
2021/06/05 02:22:21;;;;;;;0.20;0.20;;;;;;;12.49;100.00;93503.34;2105076;28;20103;-88
2021/06/05 02:23:28;;;;;;;0.25;0.25;;;;;;;12.51;100.00;93506.38;2105853;28;20032;-89
2021/06/05 02:24:40;;;;;;;0.20;0.20;;;;;;;12.46;100.00;93506.09;2103617;28;20024;-88
2021/06/05 02:25:41;;;;;;;0.43;0.20;;;;;;;12.56;100.00;93500.50;2099321;28;20024;-87
2021/06/05 02:26:43;;;;;;;0.45;0.20;;;;;;;12.57;100.00;93503.94;2094572;28;20040;-88
2021/06/05 02:27:44;;;;;;;0.25;0.20;;;;;;;12.56;100.00;93503.19;2103843;28;20024;-88
2021/06/05 02:28:50;;;;;;;0.10;0.10;;;;;;;12.51;100.00;93506.38;2097093;28;20474;-90
2021/06/05 02:29:53;;;;;;;0.47;0.22;;;;;;;12.46;100.00;93506.84;2106196;28;20028;-87
2021/06/05 02:30:55;;;;;;;0.75;0.20;;;;;;;12.44;100.00;93505.78;2104211;28;20032;-88
2021/06/05 02:31:57;;;;;;;0.20;0.20;;;;;;;12.39;100.00;93517.00;2093586;28;20025;-89
2021/06/05 02:32:59;;;;;;;0.20;0.20;;;;;;;12.46;100.00;93498.81;2107386;28;20024;-88
2021/06/05 02:34:03;;;;;;;0.35;0.20;;;;;;;12.41;100.00;93504.66;2101354;28;20377;-89
2021/06/05 02:35:08;;;;;;;0.40;0.20;;;;;;;12.37;100.00;93498.63;2107062;28;20031;-89
2021/06/05 02:36:12;;;;;;;0.55;0.32;;;;;;;12.37;100.00;93504.00;2110705;28;20012;-88
2021/06/05 02:37:17;;;;;;;0.20;0.20;;;;;;;12.32;100.00;93499.13;2100379;28;20135;-90
2021/06/05 02:38:20;;;;;;;0.10;0.10;;;;;;;12.38;100.00;93502.84;2103952;28;20032;-90
2021/06/05 02:39:22;;;;;;;0.93;0.20;;;;;;;12.29;100.00;93502.63;2093550;28;20536;-90
2021/06/05 02:40:27;;;;;;;0.20;0.20;;;;;;;12.26;100.00;93498.88;2104503;28;20039;-89
2021/06/05 02:41:27;;;;;;;0.10;0.10;;;;;;;12.25;100.00;93496.63;2093093;28;20021;-90
2021/06/05 02:42:29;;;;;;;0.10;0.10;;;;;;;12.24;100.00;93487.06;2095916;28;20102;-88
2021/06/05 02:43:32;;;;;;;0.20;0.10;;;;;;;12.19;100.00;93495.59;2090473;28;20029;-88
2021/06/05 02:44:34;;;;;;;1.25;0.20;;;;;;;12.24;100.00;93492.41;2100443;28;20028;-88
2021/06/05 02:45:54;;;;;;;0.20;0.20;;;;;;;12.30;100.00;93488.84;2103470;28;20069;-86
2021/06/05 02:46:57;;;;;;;0.25;0.25;;;;;;;12.28;100.00;93490.41;2106904;28;20578;-88
2021/06/05 02:48:00;;;;;;;0.20;0.20;;;;;;;12.14;100.00;93490.72;2121027;28;20039;-87
2021/06/05 02:49:07;;;;;;;0.35;0.25;;;;;;;12.16;100.00;93491.84;2120947;28;20089;-88
2021/06/05 02:50:09;;;;;;;0.20;0.20;;;;;;;12.15;100.00;93492.97;2102368;28;20035;-87
2021/06/05 02:51:10;;;;;;;0.20;0.20;;;;;;;12.09;100.00;93481.25;2096053;28;20020;-89
2021/06/05 02:52:33;;;;;;;0.20;0.20;;;;;;;12.14;100.00;93485.38;2091331;28;20408;-89
2021/06/05 02:53:34;;;;;;;0.17;0.17;;;;;;;12.10;100.00;93485.44;2102009;28;20464;-89
2021/06/05 02:54:36;;;;;;;0.10;0.10;;;;;;;12.03;100.00;93485.63;2100661;28;20031;-89
2021/06/05 02:55:37;;;;;;;0.17;0.10;;;;;;;12.04;100.00;93487.13;2112755;28;20023;-87
2021/06/05 02:56:38;;;;;;;0.20;0.20;;;;;;;12.03;100.00;93485.63;2106406;28;20048;-90
2021/06/05 02:57:39;;;;;;;0.25;0.25;;;;;;;12.00;100.00;93489.88;2101096;28;20035;-86
2021/06/05 02:58:41;;;;;;;0.20;0.20;;;;;;;12.01;100.00;93494.06;2095702;28;20114;-88
2021/06/05 02:59:42;;;;;;;0.20;0.20;;;;;;;11.96;100.00;93494.53;2110370;28;20021;-88
2021/06/05 03:00:45;;;;;;;0.30;0.30;;;;;;;11.97;100.00;93485.31;2095829;28;20021;-88
2021/06/05 03:01:47;;;;;;;0.30;0.22;;;;;;;12.01;100.00;93486.00;2086066;28;20025;-88
2021/06/05 03:02:48;;;;;;;0.20;0.20;;;;;;;12.02;100.00;93484.84;2091310;28;20108;-89
2021/06/05 03:03:49;;;;;;;0.20;0.20;;;;;;;11.87;100.00;93485.56;2098247;28;20520;-88
2021/06/05 03:04:50;;;;;;;0.20;0.20;;;;;;;11.87;100.00;93491.69;2093399;28;20070;-88
2021/06/05 03:05:51;;;;;;;0.13;0.13;;;;;;;11.88;100.00;93482.47;2092309;28;20031;-87
2021/06/05 03:06:52;;;;;;;0.20;0.20;;;;;;;11.92;100.00;93483.16;2090683;28;20500;-89
2021/06/05 03:07:55;;;;;;;0.30;0.20;;;;;;;11.93;100.00;93483.91;2087503;28;20053;-88
2021/06/05 03:08:57;;;;;;;0.20;0.20;;;;;;;11.91;100.00;93486.25;2093440;28;20052;-86
2021/06/05 03:09:58;;;;;;;0.30;0.30;;;;;;;11.91;100.00;93486.25;2095962;28;20028;-88
2021/06/05 03:11:01;;;;;;;0.20;0.20;;;;;;;11.92;100.00;93480.47;2088697;28;20025;-88
2021/06/05 03:12:06;;;;;;;0.20;0.20;;;;;;;11.97;100.00;93471.94;2097699;28;20028;-89
2021/06/05 03:13:09;;;;;;;0.30;0.30;;;;;;;11.93;100.00;93478.53;2080578;28;20025;-88
2021/06/05 03:14:10;;;;;;;0.28;0.20;;;;;;;11.95;100.00;93478.91;2087406;28;20037;-87
2021/06/05 03:15:11;;;;;;;0.20;0.20;;;;;;;11.94;100.00;93475.47;2087609;28;20017;-89
2021/06/05 03:16:13;;;;;;;0.20;0.20;;;;;;;11.96;100.00;93473.09;2094810;28;20029;-87
2021/06/05 03:17:14;;;;;;;0.20;0.10;;;;;;;11.83;100.00;93470.31;2085747;28;20170;-90
2021/06/05 03:18:16;;;;;;;0.30;0.30;;;;;;;11.87;100.00;93461.47;2075677;28;20022;-88
2021/06/05 03:19:17;;;;;;;0.10;0.10;;;;;;;11.86;100.00;93458.03;2075715;28;20030;-88
2021/06/05 03:20:22;;;;;;;0.20;0.20;;;;;;;11.89;100.00;93461.78;2090149;28;20098;-86
2021/06/05 03:21:23;;;;;;;0.20;0.20;;;;;;;11.95;100.00;93460.91;2079111;28;20022;-89
2021/06/05 03:22:24;;;;;;;0.20;0.17;;;;;;;11.91;100.00;93459.47;2078173;28;20021;-88
2021/06/05 03:23:28;;;;;;;0.10;0.10;;;;;;;11.93;100.00;93463.22;2098265;28;20032;-88
2021/06/05 03:24:28;;;;;;;0.20;0.20;;;;;;;11.90;100.00;93456.03;2095100;28;20075;-88
2021/06/05 03:25:29;;;;;;;0.20;0.20;;;;;;;11.90;100.00;93455.28;2081770;28;20066;-88
2021/06/05 03:26:30;;;;;;;1.48;0.30;;;;;;;11.93;100.00;93459.78;2088085;28;20052;-88
2021/06/05 03:27:31;;;;;;;1.02;0.20;;;;;;;11.92;100.00;93459.03;2084572;28;20033;-87
2021/06/05 03:28:34;;;;;;;0.20;0.20;;;;;;;11.96;100.00;93458.97;2081004;28;20028;-87
2021/06/05 03:29:38;;;;;;;0.28;0.20;;;;;;;11.94;100.00;93462.06;2085417;28;20022;-88
2021/06/05 03:30:39;;;;;;;0.30;0.30;;;;;;;11.96;100.00;93454.34;2087917;28;20021;-88
2021/06/05 03:31:40;;;;;;;0.20;0.20;;;;;;;11.92;100.00;93466.31;2077242;28;20029;-86
2021/06/05 03:32:41;;;;;;;0.20;0.20;;;;;;;11.93;100.00;93455.19;2082991;28;20024;-87
2021/06/05 03:33:42;;;;;;;0.50;0.30;;;;;;;11.93;100.00;93454.44;2076257;28;20033;-88
2021/06/05 03:34:44;;;;;;;0.30;0.20;;;;;;;11.95;100.00;93455.53;2083021;28;20021;-89
2021/06/05 03:35:46;;;;;;;0.55;0.40;;;;;;;11.95;100.00;93444.81;2089943;28;20025;-88
2021/06/05 03:36:46;;;;;;;0.52;0.40;;;;;;;11.99;100.00;93444.75;2085113;28;20389;-88
2021/06/05 03:37:47;;;;;;;0.32;0.30;;;;;;;12.01;100.00;93448.50;2083817;28;20025;-88
2021/06/05 03:38:48;;;;;;;0.30;0.30;;;;;;;11.96;100.00;93438.28;2085580;28;20029;-89
2021/06/05 03:39:49;;;;;;;2.00;0.30;;;;;;;11.94;100.00;93443.31;2096894;28;20032;-88
2021/06/05 03:40:52;;;;;;;0.20;0.20;;;;;;;11.97;100.00;93441.72;2088901;28;20025;-89
2021/06/05 03:41:53;;;;;;;0.40;0.20;;;;;;;12.02;100.00;93447.31;2082648;28;20398;-87
2021/06/05 03:42:55;;;;;;;0.10;0.10;;;;;;;11.95;100.00;93438.72;2082979;28;20029;-89
2021/06/05 03:43:56;;;;;;;0.20;0.20;;;;;;;11.94;100.00;93429.91;2093303;28;20020;-88
2021/06/05 03:44:56;;;;;;;0.45;0.20;;;;;;;12.00;100.00;93430.94;2080879;28;20071;-89
2021/06/05 03:45:57;;;;;;;0.20;0.20;;;;;;;11.97;100.00;93433.69;2079630;28;20033;-89
2021/06/05 03:46:58;;;;;;;0.35;0.25;;;;;;;11.98;100.00;93438.59;2081568;28;20107;-88
2021/06/05 03:48:00;;;;;;;0.32;0.20;;;;;;;12.13;100.00;93432.97;2077148;28;20077;-89
2021/06/05 03:49:01;;;;;;;0.30;0.30;;;;;;;12.04;100.00;93436.22;2081656;28;20044;-88
2021/06/05 03:50:05;;;;;;;0.20;0.20;;;;;;;11.97;100.00;93434.44;2079553;28;20841;-88
2021/06/05 03:51:07;;;;;;;0.40;0.20;;;;;;;12.02;100.00;93433.94;2081124;28;20421;-87
2021/06/05 03:52:08;;;;;;;1.35;0.30;;;;;;;12.03;100.00;93435.47;2075244;28;20032;-89
2021/06/05 03:53:09;;;;;;;0.82;0.30;;;;;;;12.01;100.00;93437.78;2083700;28;20481;-88
2021/06/05 03:54:10;;;;;;;0.22;0.20;;;;;;;12.04;100.00;93445.00;2092137;28;20025;-87
2021/06/05 03:55:12;;;;;;;0.40;0.20;;;;;;;12.05;100.00;93438.47;2075407;28;20018;-89
2021/06/05 03:56:14;;;;;;;0.75;0.30;;;;;;;12.03;100.00;93442.75;2090469;28;20473;-90
2021/06/05 03:57:15;;;;;;;0.38;0.25;;;;;;;12.05;100.00;93440.38;2092130;28;20362;-88
2021/06/05 03:58:26;;;;;;;0.20;0.20;;;;;;;12.06;100.00;93447.25;2094581;28;20128;-87
2021/06/05 03:59:27;;;;;;;0.20;0.20;;;;;;;12.04;100.00;93442.31;2086092;28;20032;-88
2021/06/05 04:00:31;;;;;;;0.68;0.30;;;;;;;12.06;100.00;93442.66;2073607;28;20513;-88
2021/06/05 04:01:32;;;;;;;0.25;0.20;;;;;;;12.07;100.00;93446.06;2079372;28;20040;-89
2021/06/05 04:02:33;;;;;;;0.25;0.25;;;;;;;12.09;100.00;93444.50;2089344;28;20028;-88
2021/06/05 04:03:34;;;;;;;0.40;0.30;;;;;;;12.13;100.00;93439.06;2084212;28;20025;-89
2021/06/05 04:04:34;;;;;;;0.73;0.28;;;;;;;12.15;100.00;93441.31;2079671;28;20021;-89
2021/06/05 04:05:36;;;;;;;1.00;0.20;;;;;;;12.16;100.00;93446.28;2081720;28;20041;-88
2021/06/05 04:06:37;;;;;;;0.63;0.38;;;;;;;12.15;100.00;93438.63;2080907;28;20445;-89
2021/06/05 04:07:38;;;;;;;0.35;0.22;;;;;;;12.16;100.00;93437.47;2081639;28;20033;-88
2021/06/05 04:08:41;;;;;;;0.30;0.30;;;;;;;12.16;100.00;93440.13;2087140;28;20493;-89
2021/06/05 04:09:42;;;;;;;0.95;0.30;;;;;;;12.20;100.00;93438.88;2097872;28;20181;-89
2021/06/05 04:10:42;;;;;;;0.20;0.20;;;;;;;12.21;100.00;93440.41;2086899;28;20029;-89
2021/06/05 04:11:43;;;;;;;0.40;0.30;;;;;;;12.23;100.00;93443.41;2083640;28;20545;-89
2021/06/05 04:12:44;;;;;;;1.00;0.30;;;;;;;12.25;100.00;93443.78;2078704;28;20022;-89
2021/06/05 04:13:46;;;;;;;0.30;0.20;;;;;;;12.27;100.00;93441.41;2082594;28;20032;-88
2021/06/05 04:14:47;;;;;;;0.45;0.40;;;;;;;12.28;100.00;93442.16;2089926;28;20092;-89
2021/06/05 04:15:47;;;;;;;0.52;0.32;;;;;;;12.37;100.00;93450.38;2089750;28;20123;-87
2021/06/05 04:16:48;;;;;;;0.50;0.30;;;;;;;12.30;100.00;93443.28;2078937;28;20117;-90
2021/06/05 04:17:56;;;;;;;0.75;0.35;;;;;;;12.25;100.00;93441.09;2076453;28;20481;-90
2021/06/05 04:18:58;;;;;;;1.00;0.20;;;;;;;12.22;100.00;93441.16;2083395;28;20030;-87
2021/06/05 04:19:58;;;;;;;0.43;0.30;;;;;;;12.29;100.00;93452.50;2085061;28;20045;-88
2021/06/05 04:21:01;;;;;;;0.25;0.25;;;;;;;12.31;100.00;93444.78;2095911;28;20025;-89
2021/06/05 04:22:02;;;;;;;1.10;0.28;;;;;;;12.28;100.00;93448.28;2081565;28;20041;-87
2021/06/05 04:23:04;;;;;;;1.05;0.30;;;;;;;12.28;100.00;93445.59;2095940;28;20021;-88
2021/06/05 04:24:05;;;;;;;1.08;0.20;;;;;;;12.30;100.00;93454.00;2078013;28;20021;-89
2021/06/05 04:25:07;;;;;;;0.20;0.20;;;;;;;12.24;100.00;93444.16;2075424;28;20053;-87
2021/06/05 04:26:09;;;;;;;0.38;0.28;;;;;;;12.28;100.00;93448.28;2078932;28;20025;-90
2021/06/05 04:27:10;;;;;;;0.20;0.20;;;;;;;12.29;100.00;93443.66;2089195;28;20017;-87
2021/06/05 04:28:14;;;;;;;0.30;0.30;;;;;;;12.33;100.00;93447.78;2083318;28;20053;-89
2021/06/05 04:29:15;;;;;;;0.38;0.22;;;;;;;12.28;100.00;93448.28;2088279;28;20126;-88
2021/06/05 04:30:16;;;;;;;0.40;0.30;;;;;;;12.31;100.00;93450.13;2088781;28;20021;-87
2021/06/05 04:31:17;;;;;;;0.20;0.20;;;;;;;12.32;100.00;93446.28;2080082;28;20734;-88
2021/06/05 04:32:18;;;;;;;0.28;0.20;;;;;;;12.38;100.00;93453.81;2085479;28;20026;-86
2021/06/05 04:33:21;;;;;;;0.30;0.30;;;;;;;12.39;100.00;93445.38;2097874;28;20032;-88
2021/06/05 04:34:22;;;;;;;0.20;0.20;;;;;;;12.37;100.00;93449.63;2080154;28;20041;-91
2021/06/05 04:35:23;;;;;;;0.35;0.20;;;;;;;12.38;100.00;93454.59;2081477;28;20022;-88
2021/06/05 04:36:24;;;;;;;1.00;0.20;;;;;;;12.39;100.00;93453.41;2089465;28;20033;-89
2021/06/05 04:37:24;;;;;;;0.63;0.20;;;;;;;12.41;100.00;93447.63;2083919;28;20025;-89
2021/06/05 04:38:26;;;;;;;0.65;0.20;;;;;;;12.41;100.00;93458.34;2081479;28;20033;-88
2021/06/05 04:39:27;;;;;;;0.20;0.17;;;;;;;12.39;100.00;93452.66;2088291;28;20040;-88
2021/06/05 04:40:28;;;;;;;0.32;0.20;;;;;;;12.45;100.00;93453.66;2076561;28;20037;-90
2021/06/05 04:41:29;;;;;;;0.30;0.30;;;;;;;12.53;100.00;93452.31;2078497;28;20033;-90
2021/06/05 04:42:30;;;;;;;0.40;0.20;;;;;;;12.56;100.00;93454.16;2074985;28;20029;-89
2021/06/05 04:43:31;;;;;;;0.73;0.20;;;;;;;12.52;100.00;93451.56;2083833;28;20021;-88
2021/06/05 04:44:31;;;;;;;0.13;0.13;;;;;;;12.53;100.00;93458.44;2096060;28;20111;-90
2021/06/05 04:45:32;;;;;;;0.20;0.20;;;;;;;12.54;100.00;93454.56;2081061;28;20083;-89
2021/06/05 04:46:33;;;;;;;0.20;0.20;;;;;;;12.54;100.00;93459.19;2076474;28;20531;-89
2021/06/05 04:47:34;;;;;;;0.73;0.30;;;;;;;12.57;100.00;93459.09;2079798;28;20033;-88
2021/06/05 04:48:35;;;;;;;2.38;0.40;;;;;;;12.48;100.00;93458.94;2078550;28;20044;-88
2021/06/05 04:49:36;;;;;;;0.30;0.30;;;;;;;12.45;100.00;93459.03;2078678;28;20025;-87
2021/06/05 04:50:38;;;;;;;0.20;0.20;;;;;;;12.45;100.00;93459.03;2077682;28;20076;-86
2021/06/05 04:51:40;;;;;;;0.30;0.28;;;;;;;12.44;100.00;93454.84;2087848;28;20029;-88
2021/06/05 04:52:40;;;;;;;0.68;0.25;;;;;;;12.45;100.00;93461.69;2084824;28;20029;-88
2021/06/05 04:53:41;;;;;;;0.35;0.20;;;;;;;12.50;100.00;93456.59;2079862;28;20420;-89
2021/06/05 04:54:42;;;;;;;0.68;0.30;;;;;;;12.49;100.00;93449.72;2077543;28;20036;-88
2021/06/05 04:55:43;;;;;;;0.20;0.20;;;;;;;12.51;100.00;93450.06;2077974;28;20540;-89
2021/06/05 04:56:47;;;;;;;0.13;0.13;;;;;;;12.49;100.00;93452.41;2097689;28;20032;-87
2021/06/05 04:57:48;;;;;;;0.30;0.30;;;;;;;12.55;100.00;93455.31;2097766;28;20107;-88
2021/06/05 04:58:49;;;;;;;0.38;0.30;;;;;;;12.51;100.00;93457.34;2101171;28;20032;-90